sensor_id;sensor_type;location;lat;lon;timestamp;temperature;humidity
28460;DHT22;32528;45.712;9.192;2023-09-19T00:01:52;19.20;99.90
28460;DHT22;32528;45.712;9.192;2023-09-19T00:03:52;19.30;99.90
28460;DHT22;32528;45.712;9.192;2023-09-19T00:05:53;19.20;99.90
28460;DHT22;32528;45.712;9.192;2023-09-19T00:07:54;19.20;99.90
28460;DHT22;32528;45.712;9.192;2023-09-19T00:09:56;19.30;99.90
28460;DHT22;32528;45.712;9.192;2023-09-19T00:11:57;19.30;99.90
28460;DHT22;32528;45.712;9.192;2023-09-19T00:13:57;19.30;99.90
28460;DHT22;32528;45.712;9.192;2023-09-19T00:16:01;19.30;99.90
28460;DHT22;32528;45.712;9.192;2023-09-19T00:18:08;19.30;99.90
28460;DHT22;32528;45.712;9.192;2023-09-19T00:20:09;19.20;99.90
28460;DHT22;32528;45.712;9.192;2023-09-19T00:22:13;19.20;99.90
28460;DHT22;32528;45.712;9.192;2023-09-19T00:24:13;19.20;99.90
28460;DHT22;32528;45.712;9.192;2023-09-19T00:26:14;19.20;99.90
28460;DHT22;32528;45.712;9.192;2023-09-19T00:28:18;19.20;99.90
28460;DHT22;32528;45.712;9.192;2023-09-19T00:30:20;19.20;99.90
28460;DHT22;32528;45.712;9.192;2023-09-19T00:32:21;19.20;99.90
28460;DHT22;32528;45.712;9.192;2023-09-19T00:34:21;19.20;99.90
28460;DHT22;32528;45.712;9.192;2023-09-19T00:36:22;19.10;99.90
28460;DHT22;32528;45.712;9.192;2023-09-19T00:38:23;19.10;99.90
28460;DHT22;32528;45.712;9.192;2023-09-19T00:40:27;19.10;99.90
28460;DHT22;32528;45.712;9.192;2023-09-19T00:42:28;19.10;99.90
28460;DHT22;32528;45.712;9.192;2023-09-19T00:44:28;19.00;99.90
28460;DHT22;32528;45.712;9.192;2023-09-19T00:46:29;19.10;99.90
28460;DHT22;32528;45.712;9.192;2023-09-19T00:48:30;19.10;99.90
28460;DHT22;32528;45.712;9.192;2023-09-19T00:50:30;19.10;99.90
28460;DHT22;32528;45.712;9.192;2023-09-19T00:52:33;19.00;99.90
28460;DHT22;32528;45.712;9.192;2023-09-19T00:54:33;19.10;99.90
28460;DHT22;32528;45.712;9.192;2023-09-19T00:56:35;19.10;99.90
28460;DHT22;32528;45.712;9.192;2023-09-19T00:58:38;19.10;99.90
28460;DHT22;32528;45.712;9.192;2023-09-19T01:00:39;19.00;99.90
28460;DHT22;32528;45.712;9.192;2023-09-19T01:02:43;19.00;99.90
28460;DHT22;32528;45.712;9.192;2023-09-19T01:04:44;19.00;99.90
28460;DHT22;32528;45.712;9.192;2023-09-19T01:06:45;19.00;99.90
28460;DHT22;32528;45.712;9.192;2023-09-19T01:08:46;18.90;99.90
28460;DHT22;32528;45.712;9.192;2023-09-19T01:10:51;18.90;99.90
28460;DHT22;32528;45.712;9.192;2023-09-19T01:14:54;18.90;99.90
28460;DHT22;32528;45.712;9.192;2023-09-19T01:17:09;18.80;99.90
28460;DHT22;32528;45.712;9.192;2023-09-19T01:23:59;18.90;99.90
28460;DHT22;32528;45.712;9.192;2023-09-19T01:26:10;18.90;99.90
28460;DHT22;32528;45.712;9.192;2023-09-19T01:30:19;18.90;99.90
28460;DHT22;32528;45.712;9.192;2023-09-19T01:32:22;18.90;99.90
28460;DHT22;32528;45.712;9.192;2023-09-19T01:34:25;18.80;99.90
28460;DHT22;32528;45.712;9.192;2023-09-19T01:36:31;18.90;99.90
28460;DHT22;32528;45.712;9.192;2023-09-19T01:38:34;18.80;99.90
28460;DHT22;32528;45.712;9.192;2023-09-19T01:40:37;18.80;99.90
28460;DHT22;32528;45.712;9.192;2023-09-19T01:42:43;18.80;99.90
28460;DHT22;32528;45.712;9.192;2023-09-19T01:46:48;18.80;99.90
28460;DHT22;32528;45.712;9.192;2023-09-19T01:50:59;18.80;99.90
28460;DHT22;32528;45.712;9.192;2023-09-19T01:53:03;18.80;99.90
28460;DHT22;32528;45.712;9.192;2023-09-19T01:55:08;18.80;99.90
28460;DHT22;32528;45.712;9.192;2023-09-19T01:57:14;18.90;99.90
28460;DHT22;32528;45.712;9.192;2023-09-19T01:59:18;18.90;99.90
28460;DHT22;32528;45.712;9.192;2023-09-19T02:01:22;18.80;99.90
28460;DHT22;32528;45.712;9.192;2023-09-19T02:03:24;18.80;99.90
28460;DHT22;32528;45.712;9.192;2023-09-19T02:05:25;18.80;99.90
28460;DHT22;32528;45.712;9.192;2023-09-19T02:07:27;18.80;99.90
28460;DHT22;32528;45.712;9.192;2023-09-19T02:09:32;18.70;99.90
28460;DHT22;32528;45.712;9.192;2023-09-19T02:11:35;18.70;99.90
28460;DHT22;32528;45.712;9.192;2023-09-19T02:13:37;18.70;99.90
28460;DHT22;32528;45.712;9.192;2023-09-19T02:15:38;18.70;99.90
28460;DHT22;32528;45.712;9.192;2023-09-19T02:17:39;18.70;99.90
28460;DHT22;32528;45.712;9.192;2023-09-19T02:19:40;18.70;99.90
28460;DHT22;32528;45.712;9.192;2023-09-19T02:21:41;18.70;99.90
28460;DHT22;32528;45.712;9.192;2023-09-19T02:23:42;18.70;99.90
28460;DHT22;32528;45.712;9.192;2023-09-19T02:25:42;18.70;99.90
28460;DHT22;32528;45.712;9.192;2023-09-19T02:27:44;18.70;99.90
28460;DHT22;32528;45.712;9.192;2023-09-19T02:29:44;18.70;99.90
28460;DHT22;32528;45.712;9.192;2023-09-19T02:31:45;18.70;99.90
28460;DHT22;32528;45.712;9.192;2023-09-19T02:33:46;18.70;99.90
28460;DHT22;32528;45.712;9.192;2023-09-19T02:35:47;18.70;99.90
28460;DHT22;32528;45.712;9.192;2023-09-19T02:37:48;18.70;99.90
28460;DHT22;32528;45.712;9.192;2023-09-19T02:39:48;18.70;99.90
28460;DHT22;32528;45.712;9.192;2023-09-19T02:41:49;18.70;99.90
28460;DHT22;32528;45.712;9.192;2023-09-19T02:43:50;18.70;99.90
28460;DHT22;32528;45.712;9.192;2023-09-19T02:45:50;18.60;99.90
28460;DHT22;32528;45.712;9.192;2023-09-19T02:47:53;18.70;99.90
28460;DHT22;32528;45.712;9.192;2023-09-19T02:49:55;18.70;99.90
28460;DHT22;32528;45.712;9.192;2023-09-19T02:51:55;18.60;99.90
28460;DHT22;32528;45.712;9.192;2023-09-19T02:53:59;18.60;99.90
28460;DHT22;32528;45.712;9.192;2023-09-19T02:56:00;18.60;99.90
28460;DHT22;32528;45.712;9.192;2023-09-19T02:58:01;18.60;99.90
28460;DHT22;32528;45.712;9.192;2023-09-19T03:00:03;18.60;99.90
28460;DHT22;32528;45.712;9.192;2023-09-19T03:02:04;18.60;99.90
28460;DHT22;32528;45.712;9.192;2023-09-19T03:04:05;18.50;99.90
28460;DHT22;32528;45.712;9.192;2023-09-19T03:06:11;18.50;99.90
28460;DHT22;32528;45.712;9.192;2023-09-19T03:08:13;18.40;99.90
28460;DHT22;32528;45.712;9.192;2023-09-19T03:10:20;18.40;99.90
28460;DHT22;32528;45.712;9.192;2023-09-19T03:12:21;18.40;99.90
28460;DHT22;32528;45.712;9.192;2023-09-19T03:14:22;18.40;99.90
28460;DHT22;32528;45.712;9.192;2023-09-19T03:16:23;18.40;99.90
28460;DHT22;32528;45.712;9.192;2023-09-19T03:18:27;18.40;99.90
28460;DHT22;32528;45.712;9.192;2023-09-19T03:20:28;18.40;99.90
28460;DHT22;32528;45.712;9.192;2023-09-19T03:22:28;18.40;99.90
28460;DHT22;32528;45.712;9.192;2023-09-19T03:24:29;18.40;99.90
28460;DHT22;32528;45.712;9.192;2023-09-19T03:26:32;18.40;99.90
28460;DHT22;32528;45.712;9.192;2023-09-19T03:28:34;18.40;99.90
28460;DHT22;32528;45.712;9.192;2023-09-19T03:30:35;18.40;99.90
28460;DHT22;32528;45.712;9.192;2023-09-19T03:32:44;18.40;99.90
28460;DHT22;32528;45.712;9.192;2023-09-19T03:34:46;18.30;99.90
28460;DHT22;32528;45.712;9.192;2023-09-19T03:36:49;18.30;99.90
28460;DHT22;32528;45.712;9.192;2023-09-19T03:38:50;18.30;99.90
28460;DHT22;32528;45.712;9.192;2023-09-19T03:40:51;18.30;99.90
28460;DHT22;32528;45.712;9.192;2023-09-19T03:42:52;18.30;99.90
28460;DHT22;32528;45.712;9.192;2023-09-19T03:44:53;18.20;99.90
28460;DHT22;32528;45.712;9.192;2023-09-19T03:46:56;18.20;99.90
28460;DHT22;32528;45.712;9.192;2023-09-19T03:48:57;18.20;99.90
28460;DHT22;32528;45.712;9.192;2023-09-19T03:50:58;18.30;99.90
28460;DHT22;32528;45.712;9.192;2023-09-19T03:52:59;18.30;99.90
28460;DHT22;32528;45.712;9.192;2023-09-19T03:55:00;18.30;99.90
28460;DHT22;32528;45.712;9.192;2023-09-19T03:57:03;18.30;99.90
28460;DHT22;32528;45.712;9.192;2023-09-19T03:59:04;18.30;99.90
28460;DHT22;32528;45.712;9.192;2023-09-19T04:01:05;18.30;99.90
28460;DHT22;32528;45.712;9.192;2023-09-19T04:03:07;18.30;99.90
28460;DHT22;32528;45.712;9.192;2023-09-19T04:05:08;18.30;99.90
28460;DHT22;32528;45.712;9.192;2023-09-19T04:07:09;18.20;99.90
28460;DHT22;32528;45.712;9.192;2023-09-19T04:09:10;18.20;99.90
28460;DHT22;32528;45.712;9.192;2023-09-19T04:11:13;18.20;99.90
28460;DHT22;32528;45.712;9.192;2023-09-19T04:13:14;18.10;99.90
28460;DHT22;32528;45.712;9.192;2023-09-19T04:15:15;18.20;99.90
28460;DHT22;32528;45.712;9.192;2023-09-19T04:17:17;18.10;99.90
28460;DHT22;32528;45.712;9.192;2023-09-19T04:19:19;18.10;99.90
28460;DHT22;32528;45.712;9.192;2023-09-19T04:21:20;18.10;99.90
28460;DHT22;32528;45.712;9.192;2023-09-19T04:23:21;18.10;99.90
28460;DHT22;32528;45.712;9.192;2023-09-19T04:25:22;18.10;99.90
28460;DHT22;32528;45.712;9.192;2023-09-19T04:27:22;18.00;99.90
28460;DHT22;32528;45.712;9.192;2023-09-19T04:29:23;18.00;99.90
28460;DHT22;32528;45.712;9.192;2023-09-19T04:31:23;18.00;99.90
28460;DHT22;32528;45.712;9.192;2023-09-19T04:33:24;17.90;99.90
28460;DHT22;32528;45.712;9.192;2023-09-19T04:35:25;17.90;99.90
28460;DHT22;32528;45.712;9.192;2023-09-19T04:37:27;17.90;99.90
28460;DHT22;32528;45.712;9.192;2023-09-19T04:39:27;17.90;99.90
28460;DHT22;32528;45.712;9.192;2023-09-19T04:41:28;17.90;99.90
28460;DHT22;32528;45.712;9.192;2023-09-19T04:43:29;17.80;99.90
28460;DHT22;32528;45.712;9.192;2023-09-19T04:45:30;17.80;99.90
28460;DHT22;32528;45.712;9.192;2023-09-19T04:47:31;17.80;99.90
28460;DHT22;32528;45.712;9.192;2023-09-19T04:49:32;17.80;99.90
28460;DHT22;32528;45.712;9.192;2023-09-19T04:51:32;17.90;99.90
28460;DHT22;32528;45.712;9.192;2023-09-19T04:53:34;17.80;99.90
28460;DHT22;32528;45.712;9.192;2023-09-19T04:55:35;17.80;99.90
28460;DHT22;32528;45.712;9.192;2023-09-19T04:57:36;17.90;99.90
28460;DHT22;32528;45.712;9.192;2023-09-19T04:59:37;17.90;99.90
28460;DHT22;32528;45.712;9.192;2023-09-19T05:01:38;17.90;99.90
28460;DHT22;32528;45.712;9.192;2023-09-19T05:03:38;17.90;99.90
28460;DHT22;32528;45.712;9.192;2023-09-19T05:05:39;18.00;99.90
28460;DHT22;32528;45.712;9.192;2023-09-19T05:07:43;18.00;99.90
28460;DHT22;32528;45.712;9.192;2023-09-19T05:09:44;18.00;99.90
28460;DHT22;32528;45.712;9.192;2023-09-19T05:11:45;18.10;99.90
28460;DHT22;32528;45.712;9.192;2023-09-19T05:13:46;18.10;99.90
28460;DHT22;32528;45.712;9.192;2023-09-19T05:15:47;18.20;99.90
28460;DHT22;32528;45.712;9.192;2023-09-19T05:17:48;18.20;99.90
28460;DHT22;32528;45.712;9.192;2023-09-19T05:19:49;18.30;99.90
28460;DHT22;32528;45.712;9.192;2023-09-19T05:21:50;18.20;99.90
28460;DHT22;32528;45.712;9.192;2023-09-19T05:23:51;18.30;99.90
28460;DHT22;32528;45.712;9.192;2023-09-19T05:25:52;18.30;99.90
28460;DHT22;32528;45.712;9.192;2023-09-19T05:27:53;18.30;99.90
28460;DHT22;32528;45.712;9.192;2023-09-19T05:29:54;18.40;99.90
28460;DHT22;32528;45.712;9.192;2023-09-19T05:31:56;18.40;99.90
28460;DHT22;32528;45.712;9.192;2023-09-19T05:33:57;18.50;99.90
28460;DHT22;32528;45.712;9.192;2023-09-19T05:35:58;18.50;99.90
28460;DHT22;32528;45.712;9.192;2023-09-19T05:37:59;18.60;99.90
28460;DHT22;32528;45.712;9.192;2023-09-19T05:40:00;18.60;99.90
28460;DHT22;32528;45.712;9.192;2023-09-19T05:42:00;18.70;99.90
28460;DHT22;32528;45.712;9.192;2023-09-19T05:44:01;18.80;99.90
28460;DHT22;32528;45.712;9.192;2023-09-19T05:46:03;18.80;99.90
28460;DHT22;32528;45.712;9.192;2023-09-19T05:48:10;18.80;99.90
28460;DHT22;32528;45.712;9.192;2023-09-19T05:50:12;18.90;99.90
28460;DHT22;32528;45.712;9.192;2023-09-19T05:52:12;18.90;99.90
28460;DHT22;32528;45.712;9.192;2023-09-19T05:54:13;19.00;99.90
28460;DHT22;32528;45.712;9.192;2023-09-19T05:56:14;19.10;99.90
28460;DHT22;32528;45.712;9.192;2023-09-19T05:58:15;19.20;99.90
28460;DHT22;32528;45.712;9.192;2023-09-19T06:00:18;19.20;99.90
28460;DHT22;32528;45.712;9.192;2023-09-19T06:02:19;19.30;99.90
28460;DHT22;32528;45.712;9.192;2023-09-19T06:04:20;19.40;99.90
28460;DHT22;32528;45.712;9.192;2023-09-19T06:06:21;19.40;99.90
28460;DHT22;32528;45.712;9.192;2023-09-19T06:08:22;19.50;99.90
28460;DHT22;32528;45.712;9.192;2023-09-19T06:10:22;19.50;99.90
28460;DHT22;32528;45.712;9.192;2023-09-19T06:12:23;19.60;99.90
28460;DHT22;32528;45.712;9.192;2023-09-19T06:14:24;19.60;99.90
28460;DHT22;32528;45.712;9.192;2023-09-19T06:16:25;19.70;99.90
28460;DHT22;32528;45.712;9.192;2023-09-19T06:18:26;19.80;99.90
28460;DHT22;32528;45.712;9.192;2023-09-19T06:20:27;19.80;99.90
28460;DHT22;32528;45.712;9.192;2023-09-19T06:22:28;19.70;99.90
28460;DHT22;32528;45.712;9.192;2023-09-19T06:24:29;19.80;99.90
28460;DHT22;32528;45.712;9.192;2023-09-19T06:26:31;19.80;99.90
28460;DHT22;32528;45.712;9.192;2023-09-19T06:28:32;19.90;99.90
28460;DHT22;32528;45.712;9.192;2023-09-19T06:30:33;20.00;99.90
28460;DHT22;32528;45.712;9.192;2023-09-19T06:32:35;20.00;99.90
28460;DHT22;32528;45.712;9.192;2023-09-19T06:34:36;20.00;99.90
28460;DHT22;32528;45.712;9.192;2023-09-19T06:36:38;20.10;99.90
28460;DHT22;32528;45.712;9.192;2023-09-19T06:38:39;20.20;99.90
28460;DHT22;32528;45.712;9.192;2023-09-19T06:40:41;20.20;99.90
28460;DHT22;32528;45.712;9.192;2023-09-19T06:42:43;20.20;99.90
28460;DHT22;32528;45.712;9.192;2023-09-19T06:44:47;20.20;99.90
28460;DHT22;32528;45.712;9.192;2023-09-19T06:46:48;20.30;99.90
28460;DHT22;32528;45.712;9.192;2023-09-19T06:48:51;20.40;99.90
28460;DHT22;32528;45.712;9.192;2023-09-19T06:50:53;20.50;99.90
28460;DHT22;32528;45.712;9.192;2023-09-19T06:52:55;20.50;99.90
28460;DHT22;32528;45.712;9.192;2023-09-19T06:54:57;20.70;99.90
28460;DHT22;32528;45.712;9.192;2023-09-19T06:56:58;20.70;99.90
28460;DHT22;32528;45.712;9.192;2023-09-19T06:58:59;20.80;99.90
28460;DHT22;32528;45.712;9.192;2023-09-19T07:00:59;20.80;99.90
28460;DHT22;32528;45.712;9.192;2023-09-19T07:03:00;20.90;99.90
28460;DHT22;32528;45.712;9.192;2023-09-19T07:05:01;21.00;99.90
28460;DHT22;32528;45.712;9.192;2023-09-19T07:07:02;21.00;99.90
28460;DHT22;32528;45.712;9.192;2023-09-19T07:09:02;21.00;99.90
28460;DHT22;32528;45.712;9.192;2023-09-19T07:11:03;21.10;99.90
28460;DHT22;32528;45.712;9.192;2023-09-19T07:13:06;21.20;99.90
28460;DHT22;32528;45.712;9.192;2023-09-19T07:15:09;21.20;99.90
28460;DHT22;32528;45.712;9.192;2023-09-19T07:17:10;21.30;99.90
28460;DHT22;32528;45.712;9.192;2023-09-19T07:19:10;21.30;99.90
28460;DHT22;32528;45.712;9.192;2023-09-19T07:21:11;21.30;99.90
28460;DHT22;32528;45.712;9.192;2023-09-19T07:23:16;21.40;99.90
28460;DHT22;32528;45.712;9.192;2023-09-19T07:25:18;21.40;99.90
28460;DHT22;32528;45.712;9.192;2023-09-19T07:27:19;21.60;99.90
28460;DHT22;32528;45.712;9.192;2023-09-19T07:29:19;21.70;99.90
28460;DHT22;32528;45.712;9.192;2023-09-19T07:31:20;21.70;99.90
28460;DHT22;32528;45.712;9.192;2023-09-19T07:33:23;21.80;99.90
28460;DHT22;32528;45.712;9.192;2023-09-19T07:35:27;21.90;99.90
28460;DHT22;32528;45.712;9.192;2023-09-19T07:37:28;21.90;99.90
28460;DHT22;32528;45.712;9.192;2023-09-19T07:39:29;22.00;99.90
28460;DHT22;32528;45.712;9.192;2023-09-19T07:41:30;22.00;99.90
28460;DHT22;32528;45.712;9.192;2023-09-19T07:43:32;22.00;99.90
28460;DHT22;32528;45.712;9.192;2023-09-19T07:45:33;22.10;99.90
28460;DHT22;32528;45.712;9.192;2023-09-19T07:47:34;22.00;99.90
28460;DHT22;32528;45.712;9.192;2023-09-19T07:49:36;22.00;99.90
28460;DHT22;32528;45.712;9.192;2023-09-19T07:51:37;22.10;99.90
28460;DHT22;32528;45.712;9.192;2023-09-19T07:53:38;22.10;99.90
28460;DHT22;32528;45.712;9.192;2023-09-19T07:55:39;22.20;99.90
28460;DHT22;32528;45.712;9.192;2023-09-19T07:57:41;22.30;99.90
28460;DHT22;32528;45.712;9.192;2023-09-19T07:59:42;22.30;99.90
28460;DHT22;32528;45.712;9.192;2023-09-19T08:01:43;22.30;99.90
28460;DHT22;32528;45.712;9.192;2023-09-19T08:03:44;22.40;99.90
28460;DHT22;32528;45.712;9.192;2023-09-19T08:05:45;22.40;99.90
28460;DHT22;32528;45.712;9.192;2023-09-19T08:07:46;22.50;99.90
28460;DHT22;32528;45.712;9.192;2023-09-19T08:09:48;22.50;99.90
28460;DHT22;32528;45.712;9.192;2023-09-19T08:11:49;22.50;99.90
28460;DHT22;32528;45.712;9.192;2023-09-19T08:13:51;22.40;99.90
28460;DHT22;32528;45.712;9.192;2023-09-19T08:15:52;22.40;99.90
28460;DHT22;32528;45.712;9.192;2023-09-19T08:17:55;22.50;99.90
28460;DHT22;32528;45.712;9.192;2023-09-19T08:19:56;22.60;99.90
28460;DHT22;32528;45.712;9.192;2023-09-19T08:21:57;22.60;99.90
28460;DHT22;32528;45.712;9.192;2023-09-19T08:24:01;22.60;99.90
28460;DHT22;32528;45.712;9.192;2023-09-19T08:26:04;22.60;99.90
28460;DHT22;32528;45.712;9.192;2023-09-19T08:28:08;22.70;99.90
28460;DHT22;32528;45.712;9.192;2023-09-19T08:30:09;22.70;99.90
28460;DHT22;32528;45.712;9.192;2023-09-19T08:32:11;22.70;99.90
28460;DHT22;32528;45.712;9.192;2023-09-19T08:34:11;22.70;99.90
28460;DHT22;32528;45.712;9.192;2023-09-19T08:36:12;22.80;99.90
28460;DHT22;32528;45.712;9.192;2023-09-19T08:38:14;22.80;99.90
28460;DHT22;32528;45.712;9.192;2023-09-19T08:40:15;22.90;99.90
28460;DHT22;32528;45.712;9.192;2023-09-19T08:42:17;22.90;99.90
28460;DHT22;32528;45.712;9.192;2023-09-19T08:44:21;23.00;99.90
28460;DHT22;32528;45.712;9.192;2023-09-19T08:46:22;22.90;99.90
28460;DHT22;32528;45.712;9.192;2023-09-19T08:48:27;22.90;99.90
28460;DHT22;32528;45.712;9.192;2023-09-19T08:50:28;23.10;99.90
28460;DHT22;32528;45.712;9.192;2023-09-19T08:52:36;23.10;99.90
28460;DHT22;32528;45.712;9.192;2023-09-19T08:54:40;23.10;99.90
28460;DHT22;32528;45.712;9.192;2023-09-19T08:56:41;23.20;99.90
28460;DHT22;32528;45.712;9.192;2023-09-19T08:58:48;23.20;99.90
28460;DHT22;32528;45.712;9.192;2023-09-19T09:00:49;23.20;99.90
28460;DHT22;32528;45.712;9.192;2023-09-19T09:02:51;23.30;99.90
28460;DHT22;32528;45.712;9.192;2023-09-19T09:04:52;23.30;99.90
28460;DHT22;32528;45.712;9.192;2023-09-19T09:06:54;23.40;99.90
28460;DHT22;32528;45.712;9.192;2023-09-19T09:08:55;23.40;99.90
28460;DHT22;32528;45.712;9.192;2023-09-19T09:10:56;23.50;99.90
28460;DHT22;32528;45.712;9.192;2023-09-19T09:12:58;23.60;99.90
28460;DHT22;32528;45.712;9.192;2023-09-19T09:14:59;23.60;99.90
28460;DHT22;32528;45.712;9.192;2023-09-19T09:17:00;23.60;99.90
28460;DHT22;32528;45.712;9.192;2023-09-19T09:19:03;23.60;99.90
28460;DHT22;32528;45.712;9.192;2023-09-19T09:21:03;23.70;99.90
28460;DHT22;32528;45.712;9.192;2023-09-19T09:23:04;23.70;99.90
28460;DHT22;32528;45.712;9.192;2023-09-19T09:25:06;23.70;99.90
28460;DHT22;32528;45.712;9.192;2023-09-19T09:27:06;23.70;99.90
28460;DHT22;32528;45.712;9.192;2023-09-19T09:29:11;23.70;99.90
28460;DHT22;32528;45.712;9.192;2023-09-19T09:31:24;23.80;99.90
28460;DHT22;32528;45.712;9.192;2023-09-19T09:33:25;23.80;99.90
28460;DHT22;32528;45.712;9.192;2023-09-19T09:35:26;23.90;99.90
28460;DHT22;32528;45.712;9.192;2023-09-19T09:37:27;23.90;99.90
28460;DHT22;32528;45.712;9.192;2023-09-19T09:39:31;23.90;99.90
28460;DHT22;32528;45.712;9.192;2023-09-19T09:41:36;24.10;99.90
28460;DHT22;32528;45.712;9.192;2023-09-19T09:43:38;24.10;99.90
28460;DHT22;32528;45.712;9.192;2023-09-19T09:45:40;24.10;99.90
28460;DHT22;32528;45.712;9.192;2023-09-19T09:47:48;24.20;99.90
28460;DHT22;32528;45.712;9.192;2023-09-19T09:49:58;24.20;99.90
28460;DHT22;32528;45.712;9.192;2023-09-19T09:52:07;24.20;99.90
28460;DHT22;32528;45.712;9.192;2023-09-19T09:54:15;24.20;99.90
28460;DHT22;32528;45.712;9.192;2023-09-19T09:56:16;24.30;99.90
28460;DHT22;32528;45.712;9.192;2023-09-19T09:58:16;24.30;99.90
28460;DHT22;32528;45.712;9.192;2023-09-19T10:00:18;24.30;99.90
28460;DHT22;32528;45.712;9.192;2023-09-19T10:02:21;24.40;99.90
28460;DHT22;32528;45.712;9.192;2023-09-19T10:04:28;24.40;99.90
28460;DHT22;32528;45.712;9.192;2023-09-19T10:06:40;24.40;99.90
28460;DHT22;32528;45.712;9.192;2023-09-19T10:09:00;24.40;99.90
28460;DHT22;32528;45.712;9.192;2023-09-19T10:11:15;24.40;99.90
28460;DHT22;32528;45.712;9.192;2023-09-19T10:13:15;24.50;99.90
28460;DHT22;32528;45.712;9.192;2023-09-19T10:15:18;24.50;99.90
28460;DHT22;32528;45.712;9.192;2023-09-19T10:17:21;24.60;99.60
28460;DHT22;32528;45.712;9.192;2023-09-19T10:19:27;24.70;99.30
28460;DHT22;32528;45.712;9.192;2023-09-19T10:21:30;24.80;99.90
28460;DHT22;32528;45.712;9.192;2023-09-19T10:23:31;24.80;99.90
28460;DHT22;32528;45.712;9.192;2023-09-19T10:25:36;24.80;99.80
28460;DHT22;32528;45.712;9.192;2023-09-19T10:27:37;24.90;99.90
28460;DHT22;32528;45.712;9.192;2023-09-19T10:29:39;25.00;99.50
28460;DHT22;32528;45.712;9.192;2023-09-19T10:31:39;25.00;99.50
28460;DHT22;32528;45.712;9.192;2023-09-19T10:33:47;25.00;99.20
28460;DHT22;32528;45.712;9.192;2023-09-19T10:35:50;25.00;99.10
28460;DHT22;32528;45.712;9.192;2023-09-19T10:38:05;25.00;99.70
28460;DHT22;32528;45.712;9.192;2023-09-19T10:40:06;25.10;99.40
28460;DHT22;32528;45.712;9.192;2023-09-19T10:42:09;25.20;99.90
28460;DHT22;32528;45.712;9.192;2023-09-19T10:44:13;25.40;99.30
28460;DHT22;32528;45.712;9.192;2023-09-19T10:46:14;25.50;99.60
28460;DHT22;32528;45.712;9.192;2023-09-19T10:48:15;25.70;99.40
28460;DHT22;32528;45.712;9.192;2023-09-19T10:50:19;25.70;98.30
28460;DHT22;32528;45.712;9.192;2023-09-19T10:52:23;25.70;98.40
28460;DHT22;32528;45.712;9.192;2023-09-19T10:54:26;25.60;98.00
28460;DHT22;32528;45.712;9.192;2023-09-19T10:56:32;25.50;97.80
28460;DHT22;32528;45.712;9.192;2023-09-19T10:58:35;25.40;98.40
28460;DHT22;32528;45.712;9.192;2023-09-19T11:00:52;25.50;98.10
28460;DHT22;32528;45.712;9.192;2023-09-19T11:05:12;25.60;97.50
28460;DHT22;32528;45.712;9.192;2023-09-19T11:07:13;25.60;97.20
28460;DHT22;32528;45.712;9.192;2023-09-19T11:09:17;25.70;98.10
28460;DHT22;32528;45.712;9.192;2023-09-19T11:13:41;25.70;97.90
28460;DHT22;32528;45.712;9.192;2023-09-19T11:16:02;25.70;97.80
28460;DHT22;32528;45.712;9.192;2023-09-19T11:18:19;25.80;97.30
28460;DHT22;32528;45.712;9.192;2023-09-19T11:20:25;26.00;97.00
28460;DHT22;32528;45.712;9.192;2023-09-19T11:25:13;26.10;96.20
28460;DHT22;32528;45.712;9.192;2023-09-19T11:27:19;26.20;95.60
28460;DHT22;32528;45.712;9.192;2023-09-19T11:29:27;26.30;96.40
28460;DHT22;32528;45.712;9.192;2023-09-19T11:31:41;26.30;96.70
28460;DHT22;32528;45.712;9.192;2023-09-19T11:33:43;26.10;96.20
28460;DHT22;32528;45.712;9.192;2023-09-19T11:36:08;26.00;96.60
28460;DHT22;32528;45.712;9.192;2023-09-19T11:38:08;25.90;97.50
28460;DHT22;32528;45.712;9.192;2023-09-19T11:40:11;25.70;96.70
28460;DHT22;32528;45.712;9.192;2023-09-19T11:44:36;25.90;96.70
28460;DHT22;32528;45.712;9.192;2023-09-19T11:48:51;25.70;96.50
28460;DHT22;32528;45.712;9.192;2023-09-19T11:50:52;25.60;97.10
28460;DHT22;32528;45.712;9.192;2023-09-19T11:52:53;25.70;97.00
28460;DHT22;32528;45.712;9.192;2023-09-19T11:54:56;25.70;96.70
28460;DHT22;32528;45.712;9.192;2023-09-19T11:57:00;25.70;96.60
28460;DHT22;32528;45.712;9.192;2023-09-19T11:59:01;25.70;96.10
28460;DHT22;32528;45.712;9.192;2023-09-19T12:01:01;25.80;96.50
28460;DHT22;32528;45.712;9.192;2023-09-19T12:03:11;25.80;96.40
28460;DHT22;32528;45.712;9.192;2023-09-19T12:05:11;25.90;96.20
28460;DHT22;32528;45.712;9.192;2023-09-19T12:07:14;26.00;95.90
28460;DHT22;32528;45.712;9.192;2023-09-19T12:09:19;26.20;96.00
28460;DHT22;32528;45.712;9.192;2023-09-19T12:11:21;26.30;96.20
28460;DHT22;32528;45.712;9.192;2023-09-19T12:13:23;26.30;96.30
28460;DHT22;32528;45.712;9.192;2023-09-19T12:15:24;26.30;95.40
28460;DHT22;32528;45.712;9.192;2023-09-19T12:17:35;26.40;95.20
28460;DHT22;32528;45.712;9.192;2023-09-19T12:19:36;26.40;95.50
28460;DHT22;32528;45.712;9.192;2023-09-19T12:21:36;26.40;94.50
28460;DHT22;32528;45.712;9.192;2023-09-19T12:23:37;26.50;94.90
28460;DHT22;32528;45.712;9.192;2023-09-19T12:25:42;26.60;94.80
28460;DHT22;32528;45.712;9.192;2023-09-19T12:27:47;26.70;95.10
28460;DHT22;32528;45.712;9.192;2023-09-19T12:29:48;26.70;94.80
28460;DHT22;32528;45.712;9.192;2023-09-19T12:31:58;26.80;95.30
28460;DHT22;32528;45.712;9.192;2023-09-19T12:34:00;26.60;94.20
28460;DHT22;32528;45.712;9.192;2023-09-19T12:36:18;26.60;94.40
28460;DHT22;32528;45.712;9.192;2023-09-19T12:38:25;26.50;94.20
28460;DHT22;32528;45.712;9.192;2023-09-19T12:40:28;26.60;94.10
28460;DHT22;32528;45.712;9.192;2023-09-19T12:42:33;26.80;93.90
28460;DHT22;32528;45.712;9.192;2023-09-19T12:44:36;26.80;93.80
28460;DHT22;32528;45.712;9.192;2023-09-19T12:46:38;26.90;93.80
28460;DHT22;32528;45.712;9.192;2023-09-19T12:48:39;27.00;94.60
28460;DHT22;32528;45.712;9.192;2023-09-19T12:53:06;27.10;93.70
28460;DHT22;32528;45.712;9.192;2023-09-19T12:55:25;27.10;94.10
28460;DHT22;32528;45.712;9.192;2023-09-19T12:57:26;27.10;93.60
28460;DHT22;32528;45.712;9.192;2023-09-19T12:59:30;27.10;93.40
28460;DHT22;32528;45.712;9.192;2023-09-19T13:01:36;27.20;93.40
28460;DHT22;32528;45.712;9.192;2023-09-19T13:03:40;27.30;94.10
28460;DHT22;32528;45.712;9.192;2023-09-19T13:08:18;27.20;93.90
28460;DHT22;32528;45.712;9.192;2023-09-19T13:10:19;27.30;93.20
28460;DHT22;32528;45.712;9.192;2023-09-19T13:12:37;27.10;93.30
28460;DHT22;32528;45.712;9.192;2023-09-19T13:14:39;27.10;92.80
28460;DHT22;32528;45.712;9.192;2023-09-19T13:16:54;27.20;93.10
28460;DHT22;32528;45.712;9.192;2023-09-19T13:18:56;27.10;92.60
28460;DHT22;32528;45.712;9.192;2023-09-19T13:21:06;27.20;92.70
28460;DHT22;32528;45.712;9.192;2023-09-19T13:23:25;27.30;92.90
28460;DHT22;32528;45.712;9.192;2023-09-19T13:25:26;27.40;93.40